Flight Track Log - Related Links

Times and Time Zones

All times are in EDT time to prevent confusion due to time zone crossing. See the AAL963 flight status page for this flight to view local times or setup timezone preferences in your user account.

Time Position Orientation Groundspeed Altitude Reporting Facility
EDT Latitude Longitude Course Direction KTS MPH feet Rate Location/Type
Thu 09:12:01 PM 32.8130 -97.0320 180° South 315 362 3,000  Level FlightAware ADS-B
Thu 09:12:25 PM 32.7860 -97.0320 180° South 292 336 4,000 2,318 Climbing FlightAware ADS-B
Thu 09:12:45 PM 32.7660 -97.0320 180° South 206 237 4,700 2,250 Climbing FlightAware ADS-B
Thu 09:13:05 PM 32.7440 -97.0320 180° South 201 231 5,500 2,182 Climbing FlightAware ADS-B
Thu 09:13:29 PM 32.7120 -97.0310 178° South 361 415 6,300 2,167 Climbing FlightAware ADS-B
Thu 09:13:41 PM 32.6990 -97.0270 165° South 208 239 6,800 1,946 Climbing FlightAware ADS-B
Thu 09:14:06 PM 32.6720 -97.0130 156° South 264 304 7,500 1,636 Climbing FlightAware ADS-B
Thu 09:14:25 PM 32.6490 -97.0000 155° Southeast 360 414 8,000 1,902 Climbing FlightAware ADS-B
Thu 09:14:47 PM 32.6220 -96.9870 158° South 283 326 8,800 1,714 Climbing FlightAware ADS-B
Thu 09:15:07 PM 32.5990 -96.9750 156° South 221 254 9,200 1,650 Climbing FlightAware ADS-B
Thu 09:15:27 PM 32.5730 -96.9620 157° South 249 287 9,900 1,821 Climbing FlightAware ADS-B
Thu 09:16:03 PM 32.5270 -96.9390 157° South 249 287 10,900 1,333 Climbing FlightAware ADS-B
Thu 09:16:39 PM 32.4760 -96.9130 157° South 403 464 11,500 1,000 Climbing FlightAware ADS-B
Thu 09:17:15 PM 32.4210 -96.8860 157° South 417 480 12,100 1,412 Climbing FlightAware ADS-B
Thu 09:17:47 PM 32.3680 -96.8590 157° South 336 387 13,100 1,941 Climbing FlightAware ADS-B
Thu 09:18:23 PM 32.3070 -96.8290 157° South 451 519 14,300 1,917 Climbing FlightAware ADS-B
Thu 09:18:59 PM 32.2430 -96.8020 160° South 620 713 15,400 2,261 Climbing FlightAware ADS-B
Thu 09:19:32 PM 32.1850 -96.7800 162° South 346 398 16,900 2,029 Climbing FlightAware ADS-B
Thu 09:20:07 PM 32.1230 -96.7570 163° South 356 410 17,700 1,701 Climbing FlightAware ADS-B
Thu 09:20:39 PM 32.0640 -96.7340 162° South 360 414 18,800 2,143 Climbing FlightAware ADS-B
Thu 09:21:17 PM 31.9940 -96.7080 163° South 356 410 20,200 1,784 Climbing FlightAware ADS-B
Thu 09:21:53 PM 31.9290 -96.6840 163° South 301 346 21,000 1,417 Climbing FlightAware ADS-B
Thu 09:22:29 PM 31.8590 -96.6570 162° South 538 619 21,900 1,457 Climbing FlightAware ADS-B
Thu 09:23:03 PM 31.7920 -96.6300 161° South 390 449 22,700 1,478 Climbing FlightAware ADS-B
Thu 09:23:38 PM 31.7210 -96.6000 160° South 509 586 23,600 1,500 Climbing FlightAware ADS-B
Thu 09:24:15 PM 31.6460 -96.5700 161° South 557 641 24,500 1,391 Climbing FlightAware ADS-B
Thu 09:24:47 PM 31.5820 -96.5440 161° South 427 491 25,200 1,412 Climbing FlightAware ADS-B
Thu 09:25:23 PM 31.5040 -96.5130 161° South 572 658 26,100 1,333 Climbing FlightAware ADS-B
Thu 09:25:59 PM 31.4280 -96.4850 163° South 679 781 26,800 1,147 Climbing FlightAware ADS-B
Thu 09:26:31 PM 31.3600 -96.4600 163° South 419 482 27,400 1,185 Climbing FlightAware ADS-B
Thu 09:27:20 PM 31.2570 -96.4220 162° South 510 587 28,400 1,164 Climbing FlightAware ADS-B
Thu 09:27:38 PM 31.2130 -96.4050 162° South 717 825 28,700 857 Climbing FlightAware ADS-B
Thu 09:28:09 PM 31.1530 -96.3590 147° Southeast 515 593 29,100 769 Climbing FlightAware ADS-B
Thu 09:28:17 PM 31.1390 -96.3420 134° Southeast 551 634 29,200 1,091 Climbing FlightAware ADS-B
Thu 09:28:53 PM 31.0870 -96.2610 127° Southeast 656 755 29,900 1,250 Climbing FlightAware ADS-B
Thu 09:29:29 PM 31.0380 -96.1800 125° Southeast 597 687 30,700 1,364 Climbing FlightAware ADS-B
Thu 09:30:21 PM 30.9660 -96.0630 126° Southeast 547 629 31,900 1,416 Climbing FlightAware ADS-B
Thu 09:30:58 PM 30.9150 -95.9810 126° Southeast 505 581 32,800 647 Climbing FlightAware ADS-B
Thu 09:32:03 PM 30.8260 -95.8370 126° Southeast 525 604 33,000 114 Climbing FlightAware ADS-B
Thu 09:32:43 PM 30.7710 -95.7490 126° Southeast 637 733 33,000  Level FlightAware ADS-B
Thu 09:33:19 PM 30.7210 -95.6700 126° Southeast 425 489 33,000  Level FlightAware ADS-B
Thu 09:34:22 PM 30.6340 -95.5320 126° Southeast 556 640 33,000  Level FlightAware ADS-B
Thu 09:34:55 PM 30.5890 -95.4590 126° Southeast 444 511 33,000  Level FlightAware ADS-B
Thu 09:35:31 PM 30.5360 -95.3800 128° Southeast 481 554 33,000  Level FlightAware ADS-B
Thu 09:36:07 PM 30.4770 -95.3100 134° Southeast 447 514 33,000  Level FlightAware ADS-B
Thu 09:36:42 PM 30.4130 -95.2430 138° Southeast 572 658 33,000  Level FlightAware ADS-B
Thu 09:37:15 PM 30.3550 -95.1830 138° Southeast 409 471 33,000  Level FlightAware ADS-B
Thu 09:37:51 PM 30.2930 -95.1170 137° Southeast 418 481 33,000  Level FlightAware ADS-B
Thu 09:38:27 PM 30.2280 -95.0490 138° Southeast 532 612 33,000  Level FlightAware ADS-B
Thu 09:39:03 PM 30.1624 -94.9799 138° Southeast 499 574 33,000  Level FlightAware ADS-B (EGLF / FAB)
Thu 09:39:33 PM 30.1092 -94.9239 138° Southeast 500 575 33,000  Level FlightAware ADS-B (EGLF / FAB)
Thu 09:40:03 PM 30.0560 -94.8683 138° Southeast 499 574 33,000  Level FlightAware ADS-B (EGLF / FAB)
Thu 09:40:48 PM 29.9820 -94.7910 138° Southeast 600 690 33,000  Level FlightAware ADS-B
Thu 09:41:22 PM 29.9220 -94.7290 138° Southeast 448 516 33,000  Level FlightAware ADS-B
Thu 09:41:57 PM 29.8610 -94.6650 138° Southeast 541 623 33,000  Level FlightAware ADS-B
Thu 09:42:23 PM 29.8129 -94.6149 138° Southeast 499 574 33,000  Level FlightAware ADS-B (EGLF / FAB)
Thu 09:43:08 PM 29.7360 -94.5350 138° Southeast 664 764 33,000  Level FlightAware ADS-B
Thu 09:43:42 PM 29.6771 -94.4741 138° Southeast 498 573 33,000  Level FlightAware ADS-B (EGLF / FAB)
Thu 09:44:16 PM 29.6180 -94.4130 138° Southeast 391 450 33,000  Level FlightAware ADS-B
Thu 09:44:52 PM 29.5570 -94.3500 138° Southeast 501 577 33,000  Level FlightAware ADS-B
Thu 09:45:28 PM 29.4930 -94.2840 138° Southeast 686 789 33,000  Level FlightAware ADS-B
Thu 09:46:13 PM 29.4261 -94.2056 138° Southeast 510 587 33,000  Level Houston Center
Thu 09:47:14 PM 29.3236 -94.0967 137° Southeast 507 583 33,000 -443 Level Houston Center
Thu 09:48:15 PM 29.2197 -93.9903 138° Southeast 503 579 32,100 -984 Descending Houston Center
Thu 09:49:16 PM 29.1131 -93.8842 139° Southeast 503 579 31,000 -537 Descending Houston Center
Thu 09:50:18 PM 29.0108 -93.7836 139° Southeast 497 572 31,000  Level Houston Center
Thu 09:51:19 PM 28.9078 -93.6803 139° Southeast 494 568 31,000  Level Houston Center
Thu 09:52:20 PM 28.8022 -93.5658 136° Southeast 508 585 31,000  Level Houston Center
Thu 09:53:21 PM 28.6792 -93.4419 139° Southeast 503 579 31,000  Level Houston Center
Thu 09:54:22 PM 28.5744 -93.3333 138° Southeast 500 575 31,000  Level Houston Center
Thu 09:55:23 PM 28.4700 -93.2303 139° Southeast 498 573 31,000  Level Houston Center
Thu 09:56:24 PM 28.3694 -93.1278 138° Southeast 500 575 31,000 -49 Level Houston Center
Thu 09:57:25 PM 28.2653 -93.0236 139° Southeast 500 575 30,900  Descending Houston Center
Thu 09:58:26 PM 28.1625 -92.9189 138° Southeast 497 572 31,000  Climbing Houston Center
Thu 09:59:27 PM 28.0581 -92.8161 139° Southeast 498 573 30,900  Descending Houston Center
Thu 10:00:28 PM 27.9531 -92.7139 139° Southeast 498 573 31,000  Climbing Houston Center
Thu 10:01:29 PM 27.8486 -92.6128 139° Southeast 496 571 30,900  Descending Houston Center
Thu 10:02:30 PM 27.7458 -92.5086 138° Southeast 496 571 31,000  Climbing Houston Center
Thu 10:03:31 PM 27.6217 -92.3850 139° Southeast 494 568 30,900  Descending Houston Center
Thu 10:04:32 PM 27.5181 -92.2842 139° Southeast 494 568 31,000  Climbing Houston Center
Thu 10:05:33 PM 27.4144 -92.1836 139° Southeast 492 566 30,900  Descending Houston Center
Thu 10:06:34 PM 27.3047 -92.0769 139° Southeast 491 565 31,000 Climbing Houston Center
Thu 10:08:00 PM 27.1618 -91.9295 144° Southeast  Level FlightAware Approximate
Thu 10:15:00 PM 26.3896 -91.3146 144° Southeast  Level FlightAware Approximate
Thu 10:16:00 PM 26.2788 -91.2279 145° Southeast  Level FlightAware Approximate
Thu 10:17:00 PM 26.1677 -91.1417 145° Southeast  Level FlightAware Approximate
Thu 10:18:00 PM 26.0566 -91.0556 145° Southeast  Level FlightAware Approximate
Thu 10:19:00 PM 25.9454 -90.9697 145° Southeast  Level FlightAware Approximate
Thu 10:20:00 PM 25.8342 -90.8840 145° Southeast  Level FlightAware Approximate
Thu 10:21:00 PM 25.7244 -90.7961 144° Southeast  Level FlightAware Approximate
Thu 10:22:00 PM 25.6141 -90.7090 145° Southeast  Level FlightAware Approximate
Thu 10:23:00 PM 25.5034 -90.6227 145° Southeast  Level FlightAware Approximate
Thu 10:24:00 PM 25.3926 -90.5366 145° Southeast  Level FlightAware Approximate
Thu 10:25:00 PM 25.2817 -90.4507 145° Southeast  Level FlightAware Approximate
Thu 10:26:00 PM 25.1709 -90.3649 145° Southeast  Level FlightAware Approximate
Thu 10:27:00 PM 25.0599 -90.2793 145° Southeast  Level FlightAware Approximate
Thu 10:28:00 PM 24.9489 -90.1938 145° Southeast  Level FlightAware Approximate
Thu 10:29:00 PM 24.8379 -90.1085 145° Southeast  Level FlightAware Approximate
Thu 10:30:00 PM 24.7268 -90.0233 145° Southeast  Level FlightAware Approximate
Thu 10:31:00 PM 24.6157 -89.9383 145° Southeast  Level FlightAware Approximate
Thu 10:32:00 PM 24.5045 -89.8534 145° Southeast  Level FlightAware Approximate
Thu 10:33:00 PM 24.3964 -89.7696 146° Southeast  Level FlightAware Approximate
Thu 10:34:00 PM 24.2861 -89.6889 146° Southeast  Level FlightAware Approximate
Thu 10:35:00 PM 24.1758 -89.6083 146° Southeast  Level FlightAware Approximate
Thu 10:36:00 PM 24.0654 -89.5279 146° Southeast  Level FlightAware Approximate
Thu 10:36:25 PM 24.0050 -89.4780 146° Southeast 31,000  Level FlightAware ADS-B
Thu 10:37:38 PM 23.8640 -89.3720 145° Southeast 31,000  Level FlightAware ADS-B
Thu 10:38:27 PM 23.7640 -89.2970 146° Southeast 586 674 31,000  Level FlightAware ADS-B
Thu 10:39:10 PM 23.6920 -89.2430 146° Southeast 678 780 31,000  Level FlightAware ADS-B
Thu 10:39:46 PM 23.6200 -89.1890 146° Southeast 826 951 31,000  Level FlightAware ADS-B
Thu 10:40:19 PM 23.5610 -89.1450 146° Southeast 544 626 31,000  Level FlightAware ADS-B
Thu 10:40:51 PM 23.4990 -89.0990 146° Southeast 280 322 31,000  Level FlightAware ADS-B
Thu 10:41:30 PM 23.4180 -89.0380 145° Southeast 638 734 31,000  Level FlightAware ADS-B
Thu 10:42:00 PM 23.3650 -88.9990 146° Southeast 351 404 31,000  Level FlightAware ADS-B
Thu 10:42:39 PM 23.3040 -88.9530 145° Southeast 428 493 31,000  Level FlightAware ADS-B
Thu 10:43:20 PM 23.2130 -88.8860 146° Southeast 560 644 31,000  Level FlightAware ADS-B
Thu 10:43:58 PM 23.1020 -88.8030 145° Southeast 852 980 31,000  Level FlightAware ADS-B
Thu 10:45:20 PM 23.0020 -88.7300 146° Southeast 309 356 31,000  Level FlightAware ADS-B
Thu 10:46:01 PM 22.9160 -88.6660 146° Southeast 312 359 31,000  Level FlightAware ADS-B
Thu 10:46:41 PM 22.8360 -88.6080 146° Southeast 522 601 31,000  Level FlightAware ADS-B
Thu 10:47:16 PM 22.7670 -88.5570 146° Southeast 355 409 31,000  Level FlightAware ADS-B
Thu 10:47:56 PM 22.6940 -88.5040 146° Southeast 498 573 31,000  Level FlightAware ADS-B
Thu 10:48:29 PM 22.5920 -88.4230 144° Southeast 402 463 31,000  Level FlightAware ADS-B
Thu 10:49:05 PM 22.5310 -88.3630 138° Southeast 494 568 31,000  Level FlightAware ADS-B
Thu 10:49:41 PM 22.4890 -88.3210 137° Southeast 295 339 31,000  Level FlightAware ADS-B
Thu 10:50:16 PM 22.4250 -88.2560 137° Southeast 569 655 31,000  Level FlightAware ADS-B
Thu 10:50:52 PM 22.3650 -88.1950 137° Southeast 316 364 31,000  Level FlightAware ADS-B
Thu 10:51:22 PM 22.3130 -88.1430 137° Southeast 358 412 31,000  Level FlightAware ADS-B
Thu 10:52:08 PM 22.2390 -88.0680 137° Southeast 557 641 31,000  Level FlightAware ADS-B
Thu 10:52:42 PM 22.1800 -88.0080 137° Southeast 558 642 31,000  Level FlightAware ADS-B
Thu 10:53:23 PM 22.1120 -87.9390 137° Southeast 368 423 31,000  Level FlightAware ADS-B
Thu 10:53:57 PM 22.0540 -87.8810 137° Southeast 506 582 31,000  Level FlightAware ADS-B
Thu 10:54:35 PM 21.9880 -87.8140 137° Southeast 727 837 31,000  Level FlightAware ADS-B
Thu 10:55:06 PM 21.9370 -87.7630 137° Southeast 359 413 31,000  Level FlightAware ADS-B
Thu 10:55:40 PM 21.8820 -87.7080 137° Southeast 276 318 31,000  Level FlightAware ADS-B
Thu 10:56:19 PM 21.8150 -87.6410 137° Southeast 528 608 31,000  Level FlightAware ADS-B
Thu 10:56:51 PM 21.7480 -87.5750 138° Southeast 690 794 31,000  Level FlightAware ADS-B
Thu 10:57:29 PM 21.6850 -87.5120 137° Southeast 450 518 31,000  Level FlightAware ADS-B
Thu 10:58:05 PM 21.6230 -87.4510 138° Southeast 560 644 31,000  Level FlightAware ADS-B
Thu 10:58:37 PM 21.5710 -87.3980 137° Southeast 384 442 31,000  Level FlightAware ADS-B
Thu 10:59:14 PM 21.5060 -87.3350 138° Southeast 486 559 31,000  Level FlightAware ADS-B
Thu 10:59:51 PM 21.4440 -87.2730 137° Southeast 637 733 31,000  Level FlightAware ADS-B
Thu 11:00:26 PM 21.3830 -87.2140 138° Southeast 672 773 31,000  Level FlightAware ADS-B
Thu 11:01:02 PM 21.3230 -87.1530 137° Southeast 560 644 31,000  Level FlightAware ADS-B
Thu 11:01:34 PM 21.2670 -87.0990 138° Southeast 465 535 31,000  Level FlightAware ADS-B
Thu 11:02:10 PM 21.2070 -87.0400 137° Southeast 434 499 31,000  Level FlightAware ADS-B
Thu 11:02:46 PM 21.1460 -86.9800 137° Southeast 627 722 31,000  Level FlightAware ADS-B
Thu 11:03:22 PM 21.0840 -86.9190 137° Southeast 528 608 31,000  Level FlightAware ADS-B
Thu 11:03:58 PM 21.0230 -86.8590 137° Southeast 533 613 31,000  Level FlightAware ADS-B
Thu 11:04:30 PM 20.9690 -86.8060 137° Southeast 402 463 31,000  Level FlightAware ADS-B
Thu 11:05:06 PM 20.9070 -86.7460 138° Southeast 435 501 31,000  Level FlightAware ADS-B
Thu 11:05:38 PM 20.8510 -86.6920 138° Southeast 426 490 31,000  Level FlightAware ADS-B
Thu 11:06:14 PM 20.7910 -86.6330 137° Southeast 393 452 31,000  Level FlightAware ADS-B
Thu 11:06:52 PM 20.7250 -86.5690 138° Southeast 684 787 31,000  Level FlightAware ADS-B
Thu 11:07:26 PM 20.6700 -86.5160 138° Southeast 537 618 31,000  Level FlightAware ADS-B
Thu 11:08:00 PM 20.6080 -86.4560 138° Southeast 499 574 31,000  Level FlightAware ADS-B
Thu 11:08:36 PM 20.5460 -86.3960 138° Southeast 605 696 31,000  Level FlightAware ADS-B
Thu 11:10:28 PM 20.3690 -86.2250 138° Southeast 31,000  Level FlightAware ADS-B
Thu 11:11:23 PM 20.2810 -86.1400 138° Southeast 531 611 31,000  Level FlightAware ADS-B
Thu 11:11:55 PM 20.2100 -86.0720 138° Southeast 702 808 31,000  Level FlightAware ADS-B
Thu 11:14:00 PM 20.0063 -85.8735 138° Southeast  Level FlightAware Approximate
Thu 11:15:00 PM 19.9072 -85.7799 138° Southeast  Level FlightAware Approximate
Thu 11:15:47 PM 19.8070 -85.6870 138° Southeast 31,000  Level FlightAware ADS-B
Thu 11:16:26 PM 19.7350 -85.6190 138° Southeast 506 582 31,000  Level FlightAware ADS-B
Thu 11:18:24 PM 19.5290 -85.4260 139° Southeast 31,000  Level FlightAware ADS-B
Thu 11:19:20 PM 19.4320 -85.3350 138° Southeast 569 655 31,000 23 Level FlightAware ADS-B
Thu 11:21:00 PM 19.2665 -85.1800 139° Southeast  Level FlightAware Approximate
Thu 11:22:00 PM 19.1671 -85.0872 139° Southeast  Level FlightAware Approximate
Thu 11:23:00 PM 19.0676 -84.9944 139° Southeast  Level FlightAware Approximate
Thu 11:24:00 PM 18.9681 -84.9018 139° Southeast  Level FlightAware Approximate
Thu 11:25:00 PM 18.8686 -84.8093 139° Southeast  Level FlightAware Approximate
Thu 11:26:00 PM 18.7691 -84.7169 139° Southeast  Level FlightAware Approximate
Thu 11:27:00 PM 18.6694 -84.6246 139° Southeast  Level FlightAware Approximate
Thu 11:28:00 PM 18.5698 -84.5324 139° Southeast  Level FlightAware Approximate
Thu 11:29:00 PM 18.4826 -84.4288 123° Southeast  Level FlightAware Approximate
Thu 11:30:00 PM 18.4089 -84.3127 125° Southeast  Level FlightAware Approximate
Thu 11:31:00 PM 18.3335 -84.1978 125° Southeast  Level FlightAware Approximate
Thu 11:32:00 PM 18.2580 -84.0831 125° Southeast  Level FlightAware Approximate
Thu 11:33:00 PM 18.1825 -83.9684 125° Southeast  Level FlightAware Approximate
Thu 11:34:00 PM 18.1069 -83.8539 125° Southeast  Level FlightAware Approximate
Thu 11:35:00 PM 18.0313 -83.7394 125° Southeast  Level FlightAware Approximate
Thu 11:36:00 PM 17.9555 -83.6250 125° Southeast  Level FlightAware Approximate
Thu 11:37:00 PM 17.8624 -83.5262 135° Southeast  Level FlightAware Approximate
Thu 11:38:00 PM 17.7678 -83.4286 136° Southeast  Level FlightAware Approximate
Thu 11:39:00 PM 17.6732 -83.3312 136° Southeast  Level FlightAware Approximate
Thu 11:40:00 PM 17.5785 -83.2339 136° Southeast  Level FlightAware Approximate
Thu 11:41:00 PM 17.4838 -83.1367 136° Southeast  Level FlightAware Approximate
Thu 11:42:00 PM 17.3890 -83.0396 136° Southeast  Level FlightAware Approximate
Thu 11:43:00 PM 17.2904 -82.9469 139° Southeast  Level FlightAware Approximate
Thu 11:44:00 PM 17.1905 -82.8557 139° Southeast  Level FlightAware Approximate
Thu 11:45:00 PM 17.0906 -82.7645 139° Southeast  Level FlightAware Approximate
Thu 11:46:00 PM 16.9907 -82.6735 139° Southeast  Level FlightAware Approximate
Thu 11:47:00 PM 16.8907 -82.5826 139° Southeast  Level FlightAware Approximate
Thu 11:48:00 PM 16.7906 -82.4917 139° Southeast  Level FlightAware Approximate
Thu 11:49:00 PM 16.6906 -82.4010 139° Southeast  Level FlightAware Approximate
Thu 11:50:00 PM 16.5905 -82.3103 139° Southeast  Level FlightAware Approximate
Thu 11:51:00 PM 16.4903 -82.2198 139° Southeast  Level FlightAware Approximate
Thu 11:52:00 PM 16.3949 -82.1241 134° Southeast  Level FlightAware Approximate
Thu 11:53:00 PM 16.3025 -82.0251 134° Southeast  Level FlightAware Approximate
Thu 11:54:00 PM 16.2101 -81.9261 134° Southeast  Level FlightAware Approximate
Thu 11:55:00 PM 16.1176 -81.8272 134° Southeast  Level FlightAware Approximate
Thu 11:56:00 PM 16.0252 -81.7284 134° Southeast  Level FlightAware Approximate
Thu 11:57:00 PM 15.9326 -81.6298 134° Southeast  Level FlightAware Approximate
Thu 11:58:00 PM 15.8400 -81.5312 134° Southeast  Level FlightAware Approximate
Thu 11:59:00 PM 15.7474 -81.4326 134° Southeast  Level FlightAware Approximate
Fri 12:00:00 AM 15.6558 -81.3332 133° Southeast  Level FlightAware Approximate
Fri 12:01:00 AM 15.5647 -81.2332 133° Southeast  Level FlightAware Approximate
Fri 12:02:00 AM 15.4736 -81.1333 133° Southeast  Level FlightAware Approximate
Fri 12:03:00 AM 15.3824 -81.0336 133° Southeast  Level FlightAware Approximate
Fri 12:04:00 AM 15.2912 -80.9339 133° Southeast  Level FlightAware Approximate
Fri 12:05:00 AM 15.1999 -80.8343 134° Southeast  Level FlightAware Approximate
Fri 12:06:00 AM 15.1086 -80.7348 134° Southeast  Level FlightAware Approximate
Fri 12:07:00 AM 15.0172 -80.6354 134° Southeast  Level FlightAware Approximate
Fri 12:08:00 AM 14.9151 -80.5483 142° Southeast  Level FlightAware Approximate
Fri 12:09:00 AM 14.8104 -80.4641 142° Southeast  Level FlightAware Approximate
Fri 12:10:00 AM 14.7058 -80.3801 142° Southeast  Level FlightAware Approximate
Fri 12:11:00 AM 14.6011 -80.2961 142° Southeast  Level FlightAware Approximate
Fri 12:12:00 AM 14.4963 -80.2122 142° Southeast  Level FlightAware Approximate
Fri 12:13:00 AM 14.3916 -80.1283 142° Southeast  Level FlightAware Approximate
Fri 12:14:00 AM 14.2868 -80.0446 142° Southeast  Level FlightAware Approximate
Fri 12:15:00 AM 14.1820 -79.9609 142° Southeast  Level FlightAware Approximate
Fri 12:16:00 AM 14.0771 -79.8773 142° Southeast  Level FlightAware Approximate
Fri 12:17:00 AM 13.9722 -79.7938 142° Southeast  Level FlightAware Approximate
Fri 12:18:00 AM 13.8673 -79.7104 142° Southeast  Level FlightAware Approximate
Fri 12:19:00 AM 13.7625 -79.6268 142° Southeast  Level FlightAware Approximate
Fri 12:20:00 AM 13.6577 -79.5433 142° Southeast  Level FlightAware Approximate
Fri 12:21:00 AM 13.5529 -79.4599 142° Southeast  Level FlightAware Approximate
Fri 12:22:00 AM 13.4480 -79.3765 142° Southeast  Level FlightAware Approximate
Fri 12:23:00 AM 13.3431 -79.2933 142° Southeast  Level FlightAware Approximate
Fri 12:24:00 AM 13.2382 -79.2100 142° Southeast  Level FlightAware Approximate
Fri 12:25:00 AM 13.1333 -79.1269 142° Southeast  Level FlightAware Approximate
Fri 12:26:00 AM 13.0283 -79.0438 142° Southeast  Level FlightAware Approximate
Fri 12:27:00 AM 12.9233 -78.9608 142° Southeast  Level FlightAware Approximate
Fri 12:28:00 AM 12.8183 -78.8779 142° Southeast  Level FlightAware Approximate
Fri 12:29:00 AM 12.7133 -78.7950 142° Southeast  Level FlightAware Approximate
Fri 12:30:00 AM 12.6082 -78.7122 142° Southeast  Level FlightAware Approximate
Fri 12:31:00 AM 12.5031 -78.6295 142° Southeast  Level FlightAware Approximate
Fri 12:32:00 AM 12.3980 -78.5469 142° Southeast  Level FlightAware Approximate
Fri 12:33:00 AM 12.2929 -78.4643 142° Southeast  Level FlightAware Approximate
Fri 12:34:00 AM 12.1877 -78.3817 143° Southeast  Level FlightAware Approximate
Fri 12:35:00 AM 12.0825 -78.2993 143° Southeast  Level FlightAware Approximate
Fri 12:36:00 AM 11.9773 -78.2169 143° Southeast  Level FlightAware Approximate
Fri 12:37:00 AM 11.8720 -78.1346 143° Southeast  Level FlightAware Approximate
Fri 12:38:00 AM 11.7668 -78.0523 143° Southeast  Level FlightAware Approximate
Fri 12:39:00 AM 11.6615 -77.9701 143° Southeast  Level FlightAware Approximate
Fri 12:40:00 AM 11.5562 -77.8879 143° Southeast  Level FlightAware Approximate
Fri 12:41:00 AM 11.4508 -77.8059 143° Southeast  Level FlightAware Approximate
Fri 12:42:00 AM 11.3455 -77.7238 143° Southeast  Level FlightAware Approximate
Fri 12:42:53 AM 10.9170 -77.3760 143° Southeast 33,000  Level FlightAware ADS-B
Fri 12:43:00 AM 11.2401 -77.6419 143° Southeast  Level FlightAware Approximate
Fri 12:43:33 AM 10.8490 -77.3120 137° Southeast 725 834 33,000  Level FlightAware ADS-B
Fri 12:44:23 AM 10.7660 -77.2350 138° Southeast 585 673 33,000  Level FlightAware ADS-B
Fri 12:46:00 AM 10.6085 -77.0872 137° Southeast  Level FlightAware Approximate
Fri 12:46:03 AM 10.5950 -77.0750 137° Southeast 33,000  Level FlightAware ADS-B
Fri 12:46:48 AM 10.5230 -77.0080 138° Southeast 479 551 33,000  Level FlightAware ADS-B
Fri 12:47:23 AM 10.4580 -76.9480 138° Southeast 585 673 33,000  Level FlightAware ADS-B
Fri 12:47:58 AM 10.3990 -76.8930 137° Southeast 507 583 33,000  Level FlightAware ADS-B
Fri 12:48:38 AM 10.3330 -76.8320 138° Southeast 479 551 33,000  Level FlightAware ADS-B
Fri 12:49:18 AM 10.2640 -76.7670 137° Southeast 567 652 33,000  Level FlightAware ADS-B
Fri 12:49:48 AM 10.2200 -76.7270 138° Southeast 348 400 33,000  Level FlightAware ADS-B
Fri 12:50:23 AM 10.1590 -76.6700 137° Southeast 315 362 33,000  Level FlightAware ADS-B
Fri 12:51:04 AM 10.0880 -76.6040 138° Southeast 491 565 33,000  Level FlightAware ADS-B
Fri 12:51:43 AM 10.0180 -76.5390 138° Southeast 573 659 33,000  Level FlightAware ADS-B
Fri 12:52:19 AM 9.9620 -76.4880 138° Southeast 493 567 33,000  Level FlightAware ADS-B
Fri 12:52:53 AM 9.9020 -76.4320 137° Southeast 346 398 33,000  Level FlightAware ADS-B
Fri 12:53:33 AM 9.8320 -76.3670 138° Southeast 457 526 33,000  Level FlightAware ADS-B
Fri 12:54:22 AM 9.7490 -76.2910 138° Southeast 457 526 33,000  Level FlightAware ADS-B
Fri 12:55:03 AM 9.6800 -76.2270 138° Southeast 483 556 33,000  Level FlightAware ADS-B
Fri 12:55:39 AM 9.6190 -76.1700 137° Southeast 492 566 33,000  Level FlightAware ADS-B
Fri 12:56:14 AM 9.5600 -76.1160 138° Southeast 491 565 33,000  Level FlightAware ADS-B
Fri 12:56:49 AM 9.5010 -76.0620 138° Southeast 493 567 33,000  Level FlightAware ADS-B
Fri 12:57:24 AM 9.4420 -76.0070 137° Southeast 493 567 33,000  Level FlightAware ADS-B
Fri 12:57:59 AM 9.3840 -75.9530 137° Southeast 491 565 33,000  Level FlightAware ADS-B
Fri 12:58:34 AM 9.3230 -75.8970 138° Southeast 494 568 33,000  Level FlightAware ADS-B
Fri 12:59:10 AM 9.2680 -75.8460 138° Southeast 492 566 33,000  Level FlightAware ADS-B
Fri 12:59:44 AM 9.2110 -75.7940 138° Southeast 492 566 33,000  Level FlightAware ADS-B
Fri 01:00:19 AM 9.1480 -75.7360 138° Southeast 489 563 33,000  Level FlightAware ADS-B
Fri 01:01:14 AM 9.0590 -75.6540 138° Southeast 490 564 33,000  Level FlightAware ADS-B
Fri 01:01:49 AM 9.0020 -75.6020 138° Southeast 492 566 33,000  Level FlightAware ADS-B
Fri 01:02:29 AM 8.9290 -75.5340 137° Southeast 491 565 33,000  Level FlightAware ADS-B
Fri 01:03:04 AM 8.8700 -75.4800 138° Southeast 492 566 33,000  Level FlightAware ADS-B
Fri 01:03:39 AM 8.8110 -75.4260 138° Southeast 492 566 33,000  Level FlightAware ADS-B
Fri 01:04:24 AM 8.7350 -75.3560 138° Southeast 492 566 33,000  Level FlightAware ADS-B
Fri 01:04:59 AM 8.6750 -75.3010 138° Southeast 492 566 33,000  Level FlightAware ADS-B
Fri 01:05:44 AM 8.6020 -75.2330 137° Southeast 491 565 33,000  Level FlightAware ADS-B
Fri 01:06:19 AM 8.5420 -75.1790 138° Southeast 492 566 33,000  Level FlightAware ADS-B
Fri 01:06:49 AM 8.4920 -75.1330 138° Southeast 492 566 33,000  Level FlightAware ADS-B
Fri 01:07:24 AM 8.4310 -75.0770 138° Southeast 490 564 33,000  Level FlightAware ADS-B
Fri 01:08:04 AM 8.3660 -75.0170 138° Southeast 493 567 33,000  Level FlightAware ADS-B
Fri 01:08:44 AM 8.2950 -74.9530 138° Southeast 493 567 33,000  Level FlightAware ADS-B
Fri 01:09:19 AM 8.2390 -74.9010 137° Southeast 492 566 33,000  Level FlightAware ADS-B
Fri 01:09:54 AM 8.1770 -74.8440 138° Southeast 492 566 33,000  Level FlightAware ADS-B
Fri 01:10:29 AM 8.1180 -74.7900 138° Southeast 491 565 33,000  Level FlightAware ADS-B
Fri 01:10:59 AM 8.0690 -74.7450 138° Southeast 491 565 33,000  Level FlightAware ADS-B
Fri 01:11:39 AM 8.0010 -74.6830 138° Southeast 490 564 33,000  Level FlightAware ADS-B
Fri 01:12:15 AM 7.9470 -74.6340 138° Southeast 493 567 33,000  Level FlightAware ADS-B
Fri 01:12:49 AM 7.8850 -74.5770 138° Southeast 491 565 33,000  Level FlightAware ADS-B
Fri 01:13:19 AM 7.8330 -74.5300 138° Southeast 491 565 33,000  Level FlightAware ADS-B
Fri 01:13:59 AM 7.7640 -74.4660 137° Southeast 492 566 33,000  Level FlightAware ADS-B
Fri 01:14:34 AM 7.7050 -74.4120 138° Southeast 491 565 33,000  Level FlightAware ADS-B
Fri 01:15:09 AM 7.6450 -74.3580 138° Southeast 490 564 33,000  Level FlightAware ADS-B
Fri 01:15:49 AM 7.5780 -74.2970 138° Southeast 491 565 33,000  Level FlightAware ADS-B
Fri 01:16:24 AM 7.5190 -74.2430 138° Southeast 493 567 33,000  Level FlightAware ADS-B
Fri 01:17:04 AM 7.4500 -74.1800 138° Southeast 492 566 33,000  Level FlightAware ADS-B
Fri 01:17:34 AM 7.4000 -74.1350 138° Southeast 492 566 33,000  Level FlightAware ADS-B
Fri 01:18:09 AM 7.3420 -74.0820 138° Southeast 491 565 33,000  Level FlightAware ADS-B
Fri 01:19:07 AM 7.2540 -74.0000 137° Southeast 490 564 33,000  Level FlightAware ADS-B
Fri 01:19:43 AM 7.2030 -73.9520 137° Southeast 490 564 33,000  Level FlightAware ADS-B
Fri 01:20:14 AM 7.1290 -73.8880 139° Southeast 491 565 33,000  Level FlightAware ADS-B
Fri 01:20:59 AM 7.0620 -73.8250 137° Southeast 490 564 33,000  Level FlightAware ADS-B
Fri 01:21:35 AM 7.0130 -73.7770 136° Southeast 490 564 33,000  Level FlightAware ADS-B
Fri 01:21:44 AM 6.9670 -73.7650 165° South 492 566 33,000  Level FlightAware ADS-B
Fri 01:22:29 AM 6.8840 -73.7200 152° Southeast 491 565 33,000  Level FlightAware ADS-B
Fri 01:23:08 AM 6.7960 -73.6720 152° Southeast 619 712 33,000  Level FlightAware ADS-B
Fri 01:23:43 AM 6.7270 -73.6350 152° Southeast 528 608 33,000  Level FlightAware ADS-B
Fri 01:24:16 AM 6.6590 -73.5980 152° Southeast 417 480 33,000  Level FlightAware ADS-B
Fri 01:24:50 AM 6.5890 -73.5600 152° Southeast 394 453 33,000  Level FlightAware ADS-B
Fri 01:25:28 AM 6.5140 -73.5200 152° Southeast 535 616 33,000  Level FlightAware ADS-B
Fri 01:26:04 AM 6.4440 -73.4820 152° Southeast 510 587 33,000  Level FlightAware ADS-B
Fri 01:26:36 AM 6.3760 -73.4450 152° Southeast 393 452 33,000  Level FlightAware ADS-B
Fri 01:27:11 AM 6.3080 -73.4090 152° Southeast 387 445 33,000  Level FlightAware ADS-B
Fri 01:27:47 AM 6.2340 -73.3690 152° Southeast 542 624 33,000  Level FlightAware ADS-B
Fri 01:28:24 AM 6.1630 -73.3310 152° Southeast 566 651 33,000  Level FlightAware ADS-B
Fri 01:30:00 AM 5.9758 -73.2300 152° Southeast  Level FlightAware Approximate
Fri 01:31:00 AM 5.8588 -73.1670 152° Southeast  Level FlightAware Approximate
Fri 01:32:00 AM 5.7417 -73.1040 152° Southeast  Level FlightAware Approximate
Fri 01:33:00 AM 5.6247 -73.0409 152° Southeast  Level FlightAware Approximate
Fri 01:33:27 AM 5.5610 -73.0070 152° Southeast 33,000  Level FlightAware ADS-B
Fri 01:33:49 AM 5.5160 -72.9840 153° Southeast 547 629 33,000  Level FlightAware ADS-B
Fri 01:34:23 AM 5.4490 -72.9470 151° Southeast 365 420 33,000  Level FlightAware ADS-B
Fri 01:35:01 AM 5.3750 -72.9080 152° Southeast 588 677 33,000  Level FlightAware ADS-B
Fri 01:35:37 AM 5.3030 -72.8700 152° Southeast 603 694 33,000  Level FlightAware ADS-B
Fri 01:36:09 AM 5.2420 -72.8350 150° Southeast 411 473 33,000  Level FlightAware ADS-B
Fri 01:36:33 AM 5.2000 -72.7990 140° Southeast 530 610 33,000 17 Level FlightAware ADS-B
Fri 01:39:00 AM 4.9119 -72.6474 152° Southeast  Level FlightAware Approximate
Fri 01:40:00 AM 4.7943 -72.5855 152° Southeast  Level FlightAware Approximate
Fri 01:41:00 AM 4.6767 -72.5237 152° Southeast  Level FlightAware Approximate
Fri 01:42:00 AM 4.5591 -72.4619 152° Southeast  Level FlightAware Approximate
Fri 01:43:00 AM 4.4415 -72.4001 152° Southeast  Level FlightAware Approximate
Fri 01:44:00 AM 4.3239 -72.3383 152° Southeast  Level FlightAware Approximate
Fri 01:45:00 AM 4.2063 -72.2765 152° Southeast  Level FlightAware Approximate
Fri 01:46:00 AM 4.0886 -72.2148 152° Southeast  Level FlightAware Approximate
Fri 01:47:00 AM 3.9710 -72.1531 152° Southeast  Level FlightAware Approximate
Fri 01:48:00 AM 3.8597 -72.0814 145° Southeast  Level FlightAware Approximate
Fri 01:49:00 AM 3.7511 -72.0048 145° Southeast  Level FlightAware Approximate
Fri 01:50:00 AM 3.6426 -71.9282 145° Southeast  Level FlightAware Approximate
Fri 01:51:00 AM 3.5340 -71.8516 145° Southeast  Level FlightAware Approximate
Fri 01:52:00 AM 3.4254 -71.7750 145° Southeast  Level FlightAware Approximate
Fri 01:53:00 AM 3.3168 -71.6985 145° Southeast  Level FlightAware Approximate
Fri 01:54:00 AM 3.2082 -71.6220 145° Southeast  Level FlightAware Approximate
Fri 01:55:00 AM 3.0996 -71.5455 145° Southeast  Level FlightAware Approximate
Fri 01:56:00 AM 2.9910 -71.4690 145° Southeast  Level FlightAware Approximate
Fri 01:57:00 AM 2.8824 -71.3926 145° Southeast  Level FlightAware Approximate
Fri 01:58:00 AM 2.7738 -71.3161 145° Southeast  Level FlightAware Approximate
Fri 01:59:00 AM 2.6652 -71.2397 145° Southeast  Level FlightAware Approximate
Fri 02:00:00 AM 2.5566 -71.1633 145° Southeast  Level FlightAware Approximate
Fri 02:01:00 AM 2.4479 -71.0868 145° Southeast  Level FlightAware Approximate
Fri 02:02:00 AM 2.3393 -71.0104 145° Southeast  Level FlightAware Approximate
Fri 02:03:00 AM 2.2307 -70.9341 145° Southeast  Level FlightAware Approximate
Fri 02:04:00 AM 2.1220 -70.8577 145° Southeast  Level FlightAware Approximate
Fri 02:05:00 AM 2.0134 -70.7813 145° Southeast  Level FlightAware Approximate
Fri 02:06:00 AM 1.9047 -70.7049 145° Southeast  Level FlightAware Approximate
Fri 02:07:00 AM 1.7961 -70.6286 145° Southeast  Level FlightAware Approximate
Fri 02:08:00 AM 1.6874 -70.5523 145° Southeast  Level FlightAware Approximate
Fri 02:09:00 AM 1.5788 -70.4759 145° Southeast  Level FlightAware Approximate
Fri 02:10:00 AM 1.4701 -70.3996 145° Southeast  Level FlightAware Approximate
Fri 02:11:00 AM 1.3614 -70.3233 145° Southeast  Level FlightAware Approximate
Fri 02:12:00 AM 1.2528 -70.2470 145° Southeast  Level FlightAware Approximate
Fri 02:13:00 AM 1.1521 -70.1610 138° Southeast  Level FlightAware Approximate
Fri 02:14:00 AM 1.0531 -70.0729 138° Southeast  Level FlightAware Approximate
Fri 02:15:00 AM 0.9541 -69.9848 138° Southeast  Level FlightAware Approximate
Fri 02:16:00 AM 0.8551 -69.8967 138° Southeast  Level FlightAware Approximate
Fri 02:17:00 AM 0.7560 -69.8085 138° Southeast  Level FlightAware Approximate
Fri 02:18:00 AM 0.6570 -69.7205 138° Southeast  Level FlightAware Approximate
Fri 02:19:00 AM 0.5580 -69.6323 138° Southeast  Level FlightAware Approximate
Fri 02:20:00 AM 0.4590 -69.5443 138° Southeast  Level FlightAware Approximate
Fri 02:21:00 AM 0.3600 -69.4561 138° Southeast  Level FlightAware Approximate
Fri 02:22:00 AM 0.2610 -69.3681 138° Southeast  Level FlightAware Approximate
Fri 02:23:00 AM 0.1619 -69.2800 138° Southeast  Level FlightAware Approximate
Fri 02:24:00 AM 0.0629 -69.1919 138° Southeast  Level FlightAware Approximate
Fri 02:25:00 AM -0.0361 -69.1038 138° Southeast  Level FlightAware Approximate
Fri 02:26:00 AM -0.1351 -69.0157 138° Southeast  Level FlightAware Approximate
Fri 02:27:00 AM -0.2341 -68.9276 138° Southeast  Level FlightAware Approximate
Fri 02:28:00 AM -0.3332 -68.8395 138° Southeast  Level FlightAware Approximate
Fri 02:29:00 AM -0.4322 -68.7514 138° Southeast  Level FlightAware Approximate
Fri 02:30:00 AM -0.5312 -68.6633 138° Southeast  Level FlightAware Approximate
Fri 02:31:00 AM -0.6302 -68.5752 138° Southeast  Level FlightAware Approximate
Fri 02:32:00 AM -0.7292 -68.4871 138° Southeast  Level FlightAware Approximate
Fri 02:33:00 AM -0.8282 -68.3990 138° Southeast  Level FlightAware Approximate
Fri 02:34:00 AM -0.9273 -68.3109 138° Southeast  Level FlightAware Approximate
Fri 02:35:00 AM -1.0263 -68.2228 138° Southeast  Level FlightAware Approximate
Fri 02:36:00 AM -1.1253 -68.1347 138° Southeast  Level FlightAware Approximate
Fri 02:37:00 AM -1.2243 -68.0465 138° Southeast  Level FlightAware Approximate
Fri 02:38:00 AM -1.3233 -67.9584 138° Southeast  Level FlightAware Approximate
Fri 02:39:00 AM -1.4223 -67.8702 138° Southeast  Level FlightAware Approximate
Fri 02:40:00 AM -1.5213 -67.7821 138° Southeast  Level FlightAware Approximate
Fri 02:41:00 AM -1.6202 -67.6939 138° Southeast  Level FlightAware Approximate
Fri 02:42:00 AM -1.7192 -67.6058 138° Southeast  Level FlightAware Approximate
Fri 02:43:00 AM -1.8182 -67.5176 138° Southeast  Level FlightAware Approximate
Fri 02:44:00 AM -1.9172 -67.4294 138° Southeast  Level FlightAware Approximate
Fri 02:45:00 AM -2.0162 -67.3412 138° Southeast  Level FlightAware Approximate
Fri 02:46:00 AM -2.1151 -67.2530 138° Southeast  Level FlightAware Approximate
Fri 02:47:00 AM -2.2141 -67.1648 138° Southeast  Level FlightAware Approximate
Fri 02:48:00 AM -2.3131 -67.0765 138° Southeast  Level FlightAware Approximate
Fri 02:49:00 AM -2.4120 -66.9883 138° Southeast  Level FlightAware Approximate
Fri 02:50:00 AM -2.5110 -66.9000 138° Southeast  Level FlightAware Approximate
Fri 02:51:00 AM -2.6099 -66.8118 138° Southeast  Level FlightAware Approximate
Fri 02:52:00 AM -2.7088 -66.7235 138° Southeast  Level FlightAware Approximate
Fri 02:53:00 AM -2.8078 -66.6352 138° Southeast  Level FlightAware Approximate
Fri 02:54:00 AM -2.9067 -66.5469 138° Southeast  Level FlightAware Approximate
Fri 02:55:00 AM -3.0056 -66.4586 138° Southeast  Level FlightAware Approximate
Fri 02:56:00 AM -3.1045 -66.3702 138° Southeast  Level FlightAware Approximate
Fri 02:57:00 AM -3.2034 -66.2819 138° Southeast  Level FlightAware Approximate
Fri 02:58:00 AM -3.3023 -66.1935 138° Southeast  Level FlightAware Approximate
Fri 02:59:00 AM -3.4012 -66.1051 138° Southeast  Level FlightAware Approximate
Fri 03:00:00 AM -3.5001 -66.0167 138° Southeast  Level FlightAware Approximate
Fri 03:01:00 AM -3.5989 -65.9283 138° Southeast  Level FlightAware Approximate
Fri 03:02:00 AM -3.6978 -65.8398 138° Southeast  Level FlightAware Approximate
Fri 03:03:00 AM -3.7967 -65.7513 138° Southeast  Level FlightAware Approximate
Fri 03:04:00 AM -3.8955 -65.6628 138° Southeast  Level FlightAware Approximate
Fri 03:05:00 AM -3.9943 -65.5743 138° Southeast  Level FlightAware Approximate
Fri 03:06:00 AM -4.0932 -65.4858 138° Southeast  Level FlightAware Approximate
Fri 03:07:00 AM -4.1920 -65.3972 138° Southeast  Level FlightAware Approximate
Fri 03:08:00 AM -4.2908 -65.3087 138° Southeast  Level FlightAware Approximate
Fri 03:09:00 AM -4.3896 -65.2201 138° Southeast  Level FlightAware Approximate
Fri 03:10:00 AM -4.4883 -65.1314 138° Southeast  Level FlightAware Approximate
Fri 03:11:00 AM -4.5871 -65.0428 138° Southeast  Level FlightAware Approximate
Fri 03:12:00 AM -4.6859 -64.9541 138° Southeast  Level FlightAware Approximate
Fri 03:13:00 AM -4.7846 -64.8654 138° Southeast  Level FlightAware Approximate
Fri 03:14:00 AM -4.8833 -64.7767 138° Southeast  Level FlightAware Approximate
Fri 03:15:00 AM -4.9821 -64.6880 138° Southeast  Level FlightAware Approximate
Fri 03:16:00 AM -5.0808 -64.5992 138° Southeast  Level FlightAware Approximate
Fri 03:17:00 AM -5.1795 -64.5104 138° Southeast  Level FlightAware Approximate
Fri 03:18:00 AM -5.2782 -64.4216 138° Southeast  Level FlightAware Approximate
Fri 03:19:00 AM -5.3769 -64.3327 138° Southeast  Level FlightAware Approximate
Fri 03:20:00 AM -5.4755 -64.2438 138° Southeast  Level FlightAware Approximate
Fri 03:21:00 AM -5.5742 -64.1549 138° Southeast  Level FlightAware Approximate
Fri 03:22:00 AM -5.6728 -64.0659 138° Southeast  Level FlightAware Approximate
Fri 03:23:00 AM -5.7715 -63.9770 138° Southeast  Level FlightAware Approximate
Fri 03:24:00 AM -5.8701 -63.8880 138° Southeast  Level FlightAware Approximate
Fri 03:25:00 AM -5.9687 -63.7989 138° Southeast  Level FlightAware Approximate
Fri 03:26:00 AM -6.0672 -63.7098 138° Southeast  Level FlightAware Approximate
Fri 03:27:00 AM -6.1658 -63.6207 138° Southeast  Level FlightAware Approximate
Fri 03:28:00 AM -6.2644 -63.5316 138° Southeast  Level FlightAware Approximate
Fri 03:29:00 AM -6.3629 -63.4424 138° Southeast  Level FlightAware Approximate
Fri 03:30:00 AM -6.4614 -63.3532 138° Southeast  Level FlightAware Approximate
Fri 03:31:00 AM -6.5599 -63.2640 138° Southeast  Level FlightAware Approximate
Fri 03:32:00 AM -6.6584 -63.1747 138° Southeast  Level FlightAware Approximate
Fri 03:33:00 AM -6.7569 -63.0854 138° Southeast  Level FlightAware Approximate
Fri 03:34:00 AM -6.8554 -62.9961 138° Southeast  Level FlightAware Approximate
Fri 03:35:00 AM -6.9538 -62.9067 138° Southeast  Level FlightAware Approximate
Fri 03:36:00 AM -7.0522 -62.8173 138° Southeast  Level FlightAware Approximate
Fri 03:37:00 AM -7.1507 -62.7278 138° Southeast  Level FlightAware Approximate
Fri 03:38:00 AM -7.2490 -62.6383 138° Southeast  Level FlightAware Approximate
Fri 03:39:00 AM -7.3474 -62.5488 138° Southeast  Level FlightAware Approximate
Fri 03:40:00 AM -7.4458 -62.4592 138° Southeast  Level FlightAware Approximate
Fri 03:41:00 AM -7.5441 -62.3696 138° Southeast  Level FlightAware Approximate
Fri 03:42:00 AM -7.6424 -62.2799 138° Southeast  Level FlightAware Approximate
Fri 03:43:00 AM -7.7407 -62.1902 138° Southeast  Level FlightAware Approximate
Fri 03:44:00 AM -7.8390 -62.1005 138° Southeast  Level FlightAware Approximate
Fri 03:45:00 AM -7.9373 -62.0107 138° Southeast  Level FlightAware Approximate
Fri 03:46:00 AM -8.0355 -61.9208 138° Southeast  Level FlightAware Approximate
Fri 03:47:00 AM -8.1337 -61.8310 138° Southeast  Level FlightAware Approximate
Fri 03:48:00 AM -8.2320 -61.7411 138° Southeast  Level FlightAware Approximate
Fri 03:49:00 AM -8.3301 -61.6511 138° Southeast  Level FlightAware Approximate
Fri 03:50:00 AM -8.4283 -61.5611 138° Southeast  Level FlightAware Approximate
Fri 03:51:00 AM -8.5265 -61.4711 138° Southeast  Level FlightAware Approximate
Fri 03:52:00 AM -8.6246 -61.3810 138° Southeast  Level FlightAware Approximate
Fri 03:53:00 AM -8.7227 -61.2908 138° Southeast  Level FlightAware Approximate
Fri 03:54:00 AM -8.8208 -61.2006 138° Southeast  Level FlightAware Approximate
Fri 03:55:00 AM -8.9188 -61.1104 138° Southeast  Level FlightAware Approximate
Fri 03:56:00 AM -9.0169 -61.0201 138° Southeast  Level FlightAware Approximate
Fri 03:57:00 AM -9.1149 -60.9298 138° Southeast  Level FlightAware Approximate
Fri 03:58:00 AM -9.2129 -60.8394 138° Southeast  Level FlightAware Approximate
Fri 03:59:00 AM -9.3109 -60.7490 138° Southeast  Level FlightAware Approximate
Fri 04:00:00 AM -9.4088 -60.6585 138° Southeast  Level FlightAware Approximate
Fri 04:01:00 AM -9.5067 -60.5680 138° Southeast  Level FlightAware Approximate
Fri 04:02:00 AM -9.6046 -60.4774 138° Southeast  Level FlightAware Approximate
Fri 04:03:00 AM -9.7025 -60.3867 138° Southeast  Level FlightAware Approximate
Fri 04:04:00 AM -9.8004 -60.2960 138° Southeast  Level FlightAware Approximate
Fri 04:05:00 AM -9.8982 -60.2053 138° Southeast  Level FlightAware Approximate
Fri 04:06:00 AM -9.9960 -60.1145 138° Southeast  Level FlightAware Approximate
Fri 04:07:00 AM -10.0938 -60.0236 138° Southeast  Level FlightAware Approximate
Fri 04:08:00 AM -10.1916 -59.9327 138° Southeast  Level FlightAware Approximate
Fri 04:09:00 AM -10.2893 -59.8417 138° Southeast  Level FlightAware Approximate
Fri 04:10:00 AM -10.3870 -59.7507 138° Southeast  Level FlightAware Approximate
Fri 04:11:00 AM -10.4847 -59.6596 137° Southeast  Level FlightAware Approximate
Fri 04:12:00 AM -10.5823 -59.5685 137° Southeast  Level FlightAware Approximate
Fri 04:13:00 AM -10.6800 -59.4773 137° Southeast  Level FlightAware Approximate
Fri 04:14:00 AM -10.7776 -59.3861 137° Southeast  Level FlightAware Approximate
Fri 04:15:00 AM -10.8751 -59.2947 137° Southeast  Level FlightAware Approximate
Fri 04:16:00 AM -10.9727 -59.2034 137° Southeast  Level FlightAware Approximate
Fri 04:17:00 AM -11.0702 -59.1119 137° Southeast  Level FlightAware Approximate
Fri 04:18:00 AM -11.1677 -59.0205 137° Southeast  Level FlightAware Approximate
Fri 04:19:00 AM -11.2652 -58.9289 137° Southeast  Level FlightAware Approximate
Fri 04:20:00 AM -11.3626 -58.8373 137° Southeast  Level FlightAware Approximate
Fri 04:21:00 AM -11.4600 -58.7456 137° Southeast  Level FlightAware Approximate
Fri 04:22:00 AM -11.5574 -58.6539 137° Southeast  Level FlightAware Approximate
Fri 04:23:00 AM -11.6547 -58.5620 137° Southeast  Level FlightAware Approximate
Fri 04:24:00 AM -11.7521 -58.4702 137° Southeast  Level FlightAware Approximate
Fri 04:25:00 AM -11.8494 -58.3782 137° Southeast  Level FlightAware Approximate
Fri 04:26:00 AM -11.9466 -58.2862 137° Southeast  Level FlightAware Approximate
Fri 04:27:00 AM -12.0438 -58.1942 137° Southeast  Level FlightAware Approximate
Fri 04:28:00 AM -12.1411 -58.1020 137° Southeast  Level FlightAware Approximate
Fri 04:29:00 AM -12.2382 -58.0098 137° Southeast  Level FlightAware Approximate
Fri 04:30:00 AM -12.3354 -57.9176 137° Southeast  Level FlightAware Approximate
Fri 04:31:00 AM -12.4325 -57.8252 137° Southeast  Level FlightAware Approximate
Fri 04:32:00 AM -12.5295 -57.7328 137° Southeast  Level FlightAware Approximate
Fri 04:33:00 AM -12.6266 -57.6403 137° Southeast  Level FlightAware Approximate
Fri 04:34:00 AM -12.7236 -57.5478 137° Southeast  Level FlightAware Approximate
Fri 04:35:00 AM -12.8206 -57.4552 137° Southeast  Level FlightAware Approximate
Fri 04:36:00 AM -12.9176 -57.3625 137° Southeast  Level FlightAware Approximate
Fri 04:37:00 AM -13.0145 -57.2697 137° Southeast  Level FlightAware Approximate
Fri 04:38:00 AM -13.1114 -57.1769 137° Southeast  Level FlightAware Approximate
Fri 04:39:00 AM -13.2082 -57.0840 137° Southeast  Level FlightAware Approximate
Fri 04:40:00 AM -13.3050 -56.9910 137° Southeast  Level FlightAware Approximate
Fri 04:41:00 AM -13.4018 -56.8979 137° Southeast  Level FlightAware Approximate
Fri 04:42:00 AM -13.4986 -56.8048 137° Southeast  Level FlightAware Approximate
Fri 04:43:00 AM -13.5953 -56.7116 137° Southeast  Level FlightAware Approximate
Fri 04:44:00 AM -13.6920 -56.6183 137° Southeast  Level FlightAware Approximate
Fri 04:45:00 AM -13.7886 -56.5250 137° Southeast  Level FlightAware Approximate
Fri 04:46:00 AM -13.8852 -56.4315 137° Southeast  Level FlightAware Approximate
Fri 04:47:00 AM -13.9818 -56.3380 137° Southeast  Level FlightAware Approximate
Fri 04:48:00 AM -14.0784 -56.2444 137° Southeast  Level FlightAware Approximate
Fri 04:49:00 AM -14.1749 -56.1507 137° Southeast  Level FlightAware Approximate
Fri 04:50:00 AM -14.2713 -56.0570 137° Southeast  Level FlightAware Approximate
Fri 04:51:00 AM -14.3678 -55.9632 137° Southeast  Level FlightAware Approximate
Fri 04:52:00 AM -14.4642 -55.8693 137° Southeast  Level FlightAware Approximate
Fri 04:53:00 AM -14.5605 -55.7753 137° Southeast  Level FlightAware Approximate
Fri 04:54:00 AM -14.6568 -55.6812 137° Southeast  Level FlightAware Approximate
Fri 04:55:00 AM -14.7531 -55.5870 137° Southeast  Level FlightAware Approximate
Fri 04:56:00 AM -14.8494 -55.4928 137° Southeast  Level FlightAware Approximate
Fri 04:57:00 AM -14.9456 -55.3985 137° Southeast  Level FlightAware Approximate
Fri 04:58:00 AM -15.0418 -55.3041 137° Southeast  Level FlightAware Approximate
Fri 04:59:00 AM -15.1379 -55.2095 137° Southeast  Level FlightAware Approximate
Fri 05:00:00 AM -15.2340 -55.1150 136° Southeast  Level FlightAware Approximate
Fri 05:01:00 AM -15.3300 -55.0203 136° Southeast  Level FlightAware Approximate
Fri 05:02:00 AM -15.4260 -54.9255 136° Southeast  Level FlightAware Approximate
Fri 05:03:00 AM -15.5220 -54.8307 136° Southeast  Level FlightAware Approximate
Fri 05:04:00 AM -15.6179 -54.7358 136° Southeast  Level FlightAware Approximate
Fri 05:05:00 AM -15.7138 -54.6408 136° Southeast  Level FlightAware Approximate
Fri 05:06:00 AM -15.8097 -54.5457 136° Southeast  Level FlightAware Approximate
Fri 05:07:00 AM -15.9055 -54.4505 136° Southeast  Level FlightAware Approximate
Fri 05:08:00 AM -16.0012 -54.3552 136° Southeast  Level FlightAware Approximate
Fri 05:09:00 AM -16.0970 -54.2598 136° Southeast  Level FlightAware Approximate
Fri 05:10:00 AM -16.1926 -54.1643 136° Southeast  Level FlightAware Approximate
Fri 05:11:00 AM -16.2883 -54.0687 136° Southeast  Level FlightAware Approximate
Fri 05:12:00 AM -16.3839 -53.9731 136° Southeast  Level FlightAware Approximate
Fri 05:13:00 AM -16.4794 -53.8773 136° Southeast  Level FlightAware Approximate
Fri 05:14:00 AM -16.5749 -53.7815 136° Southeast  Level FlightAware Approximate
Fri 05:15:00 AM -16.6704 -53.6855 136° Southeast  Level FlightAware Approximate
Fri 05:16:00 AM -16.7658 -53.5895 136° Southeast  Level FlightAware Approximate
Fri 05:17:00 AM -16.8612 -53.4934 136° Southeast  Level FlightAware Approximate
Fri 05:18:00 AM -16.9565 -53.3971 136° Southeast  Level FlightAware Approximate
Fri 05:19:00 AM -17.0518 -53.3008 136° Southeast  Level FlightAware Approximate
Fri 05:20:00 AM -17.1470 -53.2044 136° Southeast  Level FlightAware Approximate
Fri 05:21:00 AM -17.2422 -53.1078 136° Southeast  Level FlightAware Approximate
Fri 05:22:00 AM -17.3374 -53.0112 136° Southeast  Level FlightAware Approximate
Fri 05:23:00 AM -17.4325 -52.9145 136° Southeast  Level FlightAware Approximate
Fri 05:24:00 AM -17.5275 -52.8177 136° Southeast  Level FlightAware Approximate
Fri 05:25:00 AM -17.6225 -52.7207 136° Southeast  Level FlightAware Approximate
Fri 05:26:00 AM -17.7175 -52.6237 136° Southeast  Level FlightAware Approximate
Fri 05:27:00 AM -17.8124 -52.5266 136° Southeast  Level FlightAware Approximate
Fri 05:28:00 AM -17.9073 -52.4293 136° Southeast  Level FlightAware Approximate
Fri 05:29:00 AM -18.0021 -52.3320 136° Southeast  Level FlightAware Approximate
Fri 05:30:00 AM -18.0969 -52.2345 136° Southeast  Level FlightAware Approximate
Fri 05:31:00 AM -18.1916 -52.1370 136° Southeast  Level FlightAware Approximate
Fri 05:32:00 AM -18.2862 -52.0393 136° Southeast  Level FlightAware Approximate
Fri 05:33:00 AM -18.3809 -51.9416 136° Southeast  Level FlightAware Approximate
Fri 05:34:00 AM -18.4754 -51.8437 136° Southeast  Level FlightAware Approximate
Fri 05:35:00 AM -18.5700 -51.7457 136° Southeast  Level FlightAware Approximate
Fri 05:35:02 AM -19.0420 -50.6200 136° Southeast 37,000  Level FlightAware ADS-B
Fri 05:35:23 AM -19.0750 -50.5840 134° Southeast 489 563 37,000  Level FlightAware ADS-B
Fri 05:35:59 AM -19.1330 -50.5200 134° Southeast 458 527 37,000  Level FlightAware ADS-B
Fri 05:36:35 AM -19.1910 -50.4570 134° Southeast 542 624 37,000  Level FlightAware ADS-B
Fri 05:37:09 AM -19.2470 -50.3960 134° Southeast 616 709 37,000  Level FlightAware ADS-B
Fri 05:37:45 AM -19.3060 -50.3310 134° Southeast 595 685 37,000  Level FlightAware ADS-B
Fri 05:38:18 AM -19.3590 -50.2730 134° Southeast 425 489 37,000  Level FlightAware ADS-B
Fri 05:38:54 AM -19.4180 -50.2090 134° Southeast 414 476 37,000  Level FlightAware ADS-B
Fri 05:39:30 AM -19.4750 -50.1450 133° Southeast 647 745 37,000  Level FlightAware ADS-B
Fri 05:40:19 AM -19.5520 -50.0610 134° Southeast 488 562 37,000  Level FlightAware ADS-B
Fri 05:40:51 AM -19.6040 -50.0040 134° Southeast 393 452 37,000  Level FlightAware ADS-B
Fri 05:41:27 AM -19.6630 -49.9390 134° Southeast 436 502 37,000  Level FlightAware ADS-B
Fri 05:42:05 AM -19.7210 -49.8760 134° Southeast 530 610 37,000  Level FlightAware ADS-B
Fri 05:42:40 AM -19.7790 -49.8130 134° Southeast 562 647 37,000  Level FlightAware ADS-B
Fri 05:43:13 AM -19.8290 -49.7570 134° Southeast 456 525 37,000  Level FlightAware ADS-B
Fri 05:43:56 AM -19.9010 -49.6790 134° Southeast 583 671 37,000  Level FlightAware ADS-B
Fri 05:44:32 AM -19.9570 -49.6180 134° Southeast 593 682 37,000  Level FlightAware ADS-B
Fri 05:45:13 AM -20.0220 -49.5460 134° Southeast 627 722 37,000  Level FlightAware ADS-B
Fri 05:45:49 AM -20.0830 -49.4790 134° Southeast 544 626 37,000  Level FlightAware ADS-B
Fri 05:46:22 AM -20.1330 -49.4240 134° Southeast 376 433 37,000  Level FlightAware ADS-B
Fri 05:46:58 AM -20.1930 -49.3580 134° Southeast 543 625 37,000  Level FlightAware ADS-B
Fri 05:47:34 AM -20.2510 -49.2940 134° Southeast 494 568 37,000  Level FlightAware ADS-B
Fri 05:48:10 AM -20.3090 -49.2300 134° Southeast 563 648 37,000  Level FlightAware ADS-B
Fri 05:48:42 AM -20.3580 -49.1760 134° Southeast 487 560 37,000  Level FlightAware ADS-B
Fri 05:49:25 AM -20.4280 -49.0990 134° Southeast 474 545 37,000  Level FlightAware ADS-B
Fri 05:49:58 AM -20.4830 -49.0420 136° Southeast 487 560 37,000  Level FlightAware ADS-B
Fri 05:50:36 AM -20.5490 -48.9780 138° Southeast 545 627 37,000  Level FlightAware ADS-B
Fri 05:51:10 AM -20.6070 -48.9250 139° Southeast 489 563 37,000  Level FlightAware ADS-B
Fri 05:51:46 AM -20.6700 -48.8670 139° Southeast 564 649 37,000  Level FlightAware ADS-B
Fri 05:52:22 AM -20.7320 -48.8110 140° Southeast 595 685 37,000  Level FlightAware ADS-B
Fri 05:52:54 AM -20.7890 -48.7600 140° Southeast 437 503 37,000  Level FlightAware ADS-B
Fri 05:53:29 AM -20.8480 -48.7050 139° Southeast 371 427 37,000  Level FlightAware ADS-B
Fri 05:54:06 AM -20.9140 -48.6460 140° Southeast 585 673 37,000  Level FlightAware ADS-B
Fri 05:54:38 AM -20.9710 -48.5930 139° Southeast 446 513 37,000  Level FlightAware ADS-B
Fri 05:55:14 AM -21.0310 -48.5380 139° Southeast 412 474 37,000  Level FlightAware ADS-B
Fri 05:55:50 AM -21.0950 -48.4790 139° Southeast 526 605 37,000  Level FlightAware ADS-B
Fri 05:56:26 AM -21.1590 -48.4190 139° Southeast 679 781 37,000  Level FlightAware ADS-B
Fri 05:56:58 AM -21.2150 -48.3680 140° Southeast 456 525 37,000  Level FlightAware ADS-B
Fri 05:57:34 AM -21.2790 -48.3090 139° Southeast 435 501 37,000  Level FlightAware ADS-B
Fri 05:58:12 AM -21.3450 -48.2470 139° Southeast 662 762 37,000  Level FlightAware ADS-B
Fri 05:58:41 AM -21.3960 -48.2000 139° Southeast 446 513 37,000  Level FlightAware ADS-B
Fri 05:59:22 AM -21.4650 -48.1360 139° Southeast 446 513 37,000  Level FlightAware ADS-B
Fri 05:59:52 AM -21.5180 -48.0870 139° Southeast 307 353 37,000  Level FlightAware ADS-B
Fri 06:00:30 AM -21.5870 -48.0220 139° Southeast 539 620 37,000  Level FlightAware ADS-B
Fri 06:01:06 AM -21.6500 -47.9640 139° Southeast 606 697 37,000 -176 Level FlightAware ADS-B
Fri 06:01:38 AM -21.7070 -47.9100 139° Southeast 455 524 36,800 -1,217 Descending FlightAware ADS-B
Fri 06:02:15 AM -21.7700 -47.8510 139° Southeast 534 615 35,600 -1,973 Descending FlightAware ADS-B
Fri 06:02:51 AM -21.8330 -47.7920 139° Southeast 572 658 34,400 -2,029 Descending FlightAware ADS-B
Fri 06:03:23 AM -21.8860 -47.7420 139° Southeast 444 511 33,300 -2,057 Descending FlightAware ADS-B
Fri 06:04:01 AM -21.9510 -47.6820 139° Southeast 583 671 32,000 -2,028 Descending FlightAware ADS-B
Fri 06:04:34 AM -22.0070 -47.6290 139° Southeast 474 545 30,900 -1,913 Descending FlightAware ADS-B
Fri 06:05:10 AM -22.0650 -47.5740 139° Southeast 444 511 29,800 -1,886 Descending FlightAware ADS-B
Fri 06:05:44 AM -22.1190 -47.5230 139° Southeast 454 522 28,700 -1,833 Descending FlightAware ADS-B
Fri 06:06:22 AM -22.1770 -47.4680 139° Southeast 475 547 27,600 -1,808 Descending FlightAware ADS-B
Fri 06:06:57 AM -22.2330 -47.4150 139° Southeast 464 534 26,500 -1,765 Descending FlightAware ADS-B
Fri 06:07:30 AM -22.2800 -47.3710 139° Southeast 444 511 25,600 -1,791 Descending FlightAware ADS-B
Fri 06:08:04 AM -22.3360 -47.3190 139° Southeast 553 636 24,500 -1,800 Descending FlightAware ADS-B
Fri 06:08:40 AM -22.3900 -47.2670 138° Southeast 475 547 23,500 -1,750 Descending FlightAware ADS-B
Fri 06:09:16 AM -22.4430 -47.2170 139° Southeast 496 571 22,400 -1,765 Descending FlightAware ADS-B
Fri 06:09:48 AM -22.4890 -47.1720 138° Southeast 358 412 21,500 -1,688 Descending FlightAware ADS-B
Fri 06:10:20 AM -22.5330 -47.1310 139° Southeast 306 352 20,600 -1,759 Descending FlightAware ADS-B
Fri 06:10:46 AM -22.5730 -47.1000 144° Southeast 446 513 19,800 -1,759 Descending FlightAware ADS-B
Fri 06:11:18 AM -22.6250 -47.0760 157° South 417 480 18,900 -1,518 Descending FlightAware ADS-B
Fri 06:12:09 AM -22.7010 -47.0440 159° South 375 432 17,700 -1,571 Descending FlightAware ADS-B
Fri 06:12:42 AM -22.7580 -47.0200 159° South 278 320 16,700 -1,667 Descending FlightAware ADS-B
Fri 06:13:21 AM -22.8190 -46.9940 159° South 358 412 15,700 -1,200 Descending FlightAware ADS-B
Fri 06:13:52 AM -22.8660 -46.9740 159° South 282 325 15,300 -1,015 Descending FlightAware ADS-B
Fri 06:14:26 AM -22.9130 -46.9540 159° South 228 262 14,600 -1,297 Descending FlightAware ADS-B
Fri 06:15:06 AM -22.9630 -46.9320 158° South 278 320 13,700 -1,600 Descending FlightAware ADS-B
Fri 06:15:41 AM -23.0040 -46.9150 159° South 358 412 12,600 -1,545 Descending FlightAware ADS-B
Fri 06:16:12 AM -23.0400 -46.8990 158° South 184 212 12,000 -1,108 Descending FlightAware ADS-B
Fri 06:16:46 AM -23.0810 -46.8820 159° South 184 212 11,400 -1,217 Descending FlightAware ADS-B
Fri 06:17:21 AM -23.1210 -46.8650 159° South 187 215 10,600 -1,273 Descending FlightAware ADS-B
Fri 06:17:52 AM -23.1560 -46.8500 158° South 303 349 10,000 -1,176 Descending FlightAware ADS-B
Fri 06:18:12 AM -23.1770 -46.8410 158° South 199 229 9,600 -1,371 Descending FlightAware ADS-B
Fri 06:18:27 AM -23.1940 -46.8330 157° South 267 307 9,200 -1,371 Descending FlightAware ADS-B
Fri 06:18:47 AM -23.2150 -46.8200 150° Southeast 285 328 8,800 -1,077 Descending FlightAware ADS-B
Fri 06:19:06 AM -23.2340 -46.8080 150° Southeast 168 193 8,500 -1,077 Descending FlightAware ADS-B
Fri 06:19:26 AM -23.2550 -46.7950 150° Southeast 349 402 8,100 -1,200 Descending FlightAware ADS-B
Fri 06:19:46 AM -23.2760 -46.7830 152° Southeast 245 282 7,700 -1,200 Descending FlightAware ADS-B
Fri 06:20:06 AM -23.2980 -46.7700 152° Southeast 307 353 7,300 -1,167 Descending FlightAware ADS-B
Fri 06:20:22 AM -23.3130 -46.7620 154° Southeast 241 277 7,000 -1,167 Descending FlightAware ADS-B
Fri 06:20:42 AM -23.3350 -46.7490 152° Southeast 258 297 6,600 -1,050 Descending FlightAware ADS-B
Fri 06:21:02 AM -23.3560 -46.7370 152° Southeast 300 345 6,300 -878 Descending FlightAware ADS-B
Fri 06:21:23 AM -23.3780 -46.7250 153° Southeast 254 292 6,000 -800 Descending FlightAware ADS-B
Fri 06:21:32 AM -23.3870 -46.7190 149° Southeast 152 175 5,900 -882 Descending FlightAware ADS-B
Fri 06:21:57 AM -23.4130 -46.7040 152° Southeast 279 321 5,500 -913 Descending FlightAware ADS-B
Fri 06:22:18 AM -23.4330 -46.6900 147° Southeast 301 346 5,200 -581 Descending FlightAware ADS-B
Fri 06:22:28 AM -23.4400 -46.6810 130° Southeast 323 372 5,200 316 Level FlightAware ADS-B
Fri 06:22:37 AM -23.4450 -46.6710 119° Southeast 162 186 5,300 207 Climbing FlightAware ADS-B
Fri 06:22:57 AM -23.4530 -46.6530 116° Southeast 142 163 5,300 -150 Level FlightAware ADS-B
Fri 06:23:17 AM -23.4600 -46.6370 116° Southeast 123 142 5,200 -343 Descending FlightAware ADS-B
Fri 06:23:32 AM -23.4640 -46.6260 112° Southeast 157 181 5,100 -571 Descending FlightAware ADS-B
Fri 06:23:38 AM -23.4640 -46.6210 90° East 115 132 5,000 -1,161 Descending FlightAware ADS-B
Fri 06:24:03 AM -23.4600 -46.6020 77° East 184 212 4,500 -1,067 Descending FlightAware ADS-B
Fri 06:24:23 AM -23.4570 -46.5880 77° East 156 180 4,200 -878 Descending FlightAware ADS-B
Fri 06:24:44 AM -23.4530 -46.5740 73° East 97 112 3,900 -878 Descending FlightAware ADS-B
Fri 06:25:04 AM -23.4490 -46.5600 73° East 104 120 3,600 -818 Descending FlightAware ADS-B
Fri 06:25:28 AM -23.4450 -46.5430 76° East 163 188 3,300 -682 Descending FlightAware ADS-B
Fri 06:25:48 AM -23.4410 -46.5290 73° East 163 188 3,100 -732 Descending FlightAware ADS-B
Fri 06:26:09 AM -23.4380 -46.5140 78° East 159 183 2,800 -878 Descending FlightAware ADS-B
Fri 06:26:29 AM -23.4340 -46.4990 74° East 163 188 2,500 -800 Descending FlightAware ADS-B
Fri 06:26:54 AM -23.4290 -46.4810 73° East 194 223 2,200 -720 Descending FlightAware ADS-B
Fri 06:27:10 AM -23.4270 -46.4730 75° East 120 138 -8,250 Descending FlightAware ADS-B
Fri 06:27:43 AM -23.4230 -46.4590 73° East 96 110  Level FlightAware ADS-B

Login

Don't have an account? Register now (free) for customized features, flight alerts, and more!